Time;durP1;ratioP1;P1;durP2;ratioP2;P2;SDS_P1;SDS_P2;PMS_P1;PMS_P2;Temp;Humidity;BMP_temperature;BMP_pressure;BME280_temperature;BME280_humidity;BME280_pressure;Samples;Min_cycle;Max_cycle;Signal;HPM_P1;HPM_P2
2020/12/01 00:01:49;;;;;;;;;;;;;;;0.79;84.70;100977.67;1697375;84;20194;-77
2020/12/01 00:04:17;;;;;;;;;;;;;;;0.82;84.46;100981.89;1695186;82;20202;-78
2020/12/01 00:06:45;;;;;;;;;;;;;;;0.85;84.44;100993.69;1728044;83;20506;-75
2020/12/01 00:09:14;;;;;;;;;;;;;;;0.85;84.07;100986.95;1684829;84;20461;-75
2020/12/01 00:11:42;;;;;;;;;;;;;;;0.80;83.92;100988.80;1683999;84;20247;-76
2020/12/01 00:14:09;;;;;;;;;;;;;;;0.79;84.26;100988.95;1701567;82;20257;-75
2020/12/01 00:16:37;;;;;;;;;;;;;;;0.76;84.22;100983.92;1687151;84;20202;-75
2020/12/01 00:19:04;;;;;;;;;;;;;;;0.72;84.46;100988.80;1688840;84;20178;-74
2020/12/01 00:21:32;;;;;;;;;;;;;;;0.73;84.69;100992.33;1682854;83;20219;-74
2020/12/01 00:24:00;;;;;;;;;;;;;;;0.73;84.76;100989.64;1705214;84;20157;-74
2020/12/01 00:26:28;;;;;;;;;;;;;;;0.72;84.83;100981.20;1706779;83;20283;-74
2020/12/01 00:28:55;;;;;;;;;;;;;;;0.74;84.92;100989.96;1711159;84;20207;-74
2020/12/01 00:31:23;;;;;;;;;;;;;;;0.75;84.47;100989.81;1693472;83;20205;-77
2020/12/01 00:33:50;;;;;;;;;;;;;;;0.75;84.40;100991.16;1683412;84;20194;-75
2020/12/01 00:36:18;;;;;;;;;;;;;;;0.79;84.79;100991.64;1668486;84;20562;-78
2020/12/01 00:38:48;;;;;;;;;;;;;;;0.85;84.75;100994.53;1688195;83;20851;-77
2020/12/01 00:41:17;;;;;;;;;;;;;;;0.88;84.52;100996.05;1679172;84;20211;-77
2020/12/01 00:43:52;;;;;;;;;;;;;;;0.87;84.56;100990.31;1692563;83;20231;-76
2020/12/01 00:46:20;;;;;;;;;;;;;;;0.84;84.22;100990.14;1693279;83;20196;-78
2020/12/01 00:48:47;;;;;;;;;;;;;;;0.79;84.25;100988.95;1716858;83;20191;-78
2020/12/01 00:51:16;;;;;;;;;;;;;;;0.77;84.46;100989.13;1712503;83;20604;-78
2020/12/01 00:53:44;;;;;;;;;;;;;;;0.76;84.49;100990.13;1688067;85;20253;-76
2020/12/01 00:56:12;;;;;;;;;;;;;;;0.79;84.57;100990.30;1687883;85;20214;-76
2020/12/01 00:58:39;;;;;;;;;;;;;;;0.80;84.55;100987.45;1698872;83;20158;-76
2020/12/01 01:01:09;;;;;;;;;;;;;;;0.80;84.08;100992.00;1698957;84;20206;-76
2020/12/01 01:03:37;;;;;;;;;;;;;;;0.75;84.35;100995.70;1689455;83;20266;-75
2020/12/01 01:06:05;;;;;;;;;;;;;;;0.71;84.41;100994.36;1696893;83;20558;-75
2020/12/01 01:08:33;;;;;;;;;;;;;;;0.69;84.78;100994.51;1684039;83;20175;-76
2020/12/01 01:11:00;;;;;;;;;;;;;;;0.72;84.84;100989.29;1716985;83;20276;-79
2020/12/01 01:13:28;;;;;;;;;;;;;;;0.74;84.81;100992.66;1706137;83;20193;-76
2020/12/01 01:15:55;;;;;;;;;;;;;;;0.76;84.93;100996.05;1700342;84;20197;-79
2020/12/01 01:18:23;;;;;;;;;;;;;;;0.79;84.91;100997.03;1695354;83;20194;-76
2020/12/01 01:20:51;;;;;;;;;;;;;;;0.78;84.84;100986.79;1688109;84;20190;-79
2020/12/01 01:23:18;;;;;;;;;;;;;;;0.82;84.70;100989.97;1691251;83;20202;-79
2020/12/01 01:25:46;;;;;;;;;;;;;;;0.81;84.67;100986.42;1700904;84;20256;-75
2020/12/01 01:28:13;;;;;;;;;;;;;;;0.81;84.90;100989.66;1699339;83;20277;-76
2020/12/01 01:30:41;;;;;;;;;;;;;;;0.80;84.92;100992.84;1701197;83;20297;-74
2020/12/01 01:33:10;;;;;;;;;;;;;;;0.78;84.81;100987.28;1707331;83;20211;-75
2020/12/01 01:35:37;;;;;;;;;;;;;;;0.76;84.93;100994.70;1687659;83;20254;-80
2020/12/01 01:38:05;;;;;;;;;;;;;;;0.75;85.11;100991.16;1688154;85;20537;-77
2020/12/01 01:40:34;;;;;;;;;;;;;;;0.78;85.10;100996.72;1676851;83;20473;-78
2020/12/01 01:43:01;;;;;;;;;;;;;;;0.77;85.08;100995.88;1674388;86;20385;-77
2020/12/01 01:45:46;;;;;;;;;;;;;;;0.79;85.10;100998.38;1712660;83;20221;-85
2020/12/01 01:48:30;;;;;;;;;;;;;;;0.80;84.93;101009.52;1700094;83;20603;-86
2020/12/01 01:51:06;;;;;;;;;;;;;;;0.82;84.85;101002.09;1695765;83;20304;-79
2020/12/01 01:53:36;;;;;;;;;;;;;;;0.81;84.55;100996.39;1688526;83;20190;-88
2020/12/01 01:56:05;;;;;;;;;;;;;;;0.79;84.62;101004.62;1688571;83;20218;-81
2020/12/01 01:58:35;;;;;;;;;;;;;;;0.76;84.74;101002.25;1690047;83;20183;-80
2020/12/01 02:01:06;;;;;;;;;;;;;;;0.76;84.62;101008.98;1700719;83;20250;-79
2020/12/01 02:03:49;;;;;;;;;;;;;;;0.73;84.84;101001.77;1715888;83;20184;-76
2020/12/01 02:06:20;;;;;;;;;;;;;;;0.73;84.92;101007.16;1695405;83;20197;-78
2020/12/01 02:08:54;;;;;;;;;;;;;;;0.73;85.01;101002.61;1687998;83;20226;-81
2020/12/01 02:11:22;;;;;;;;;;;;;;;0.77;85.00;101001.75;1693902;83;20193;-80
2020/12/01 02:14:09;;;;;;;;;;;;;;;0.79;84.99;100999.23;1700875;84;20217;-81
2020/12/01 02:16:38;;;;;;;;;;;;;;;0.78;84.42;101004.30;1698448;83;20237;-82
2020/12/01 02:19:07;;;;;;;;;;;;;;;0.77;84.54;100993.67;1700755;84;20185;-82
2020/12/01 02:21:38;;;;;;;;;;;;;;;0.76;84.31;101000.09;1697091;83;20186;-81
2020/12/01 02:24:09;;;;;;;;;;;;;;;0.76;84.44;100998.74;1688292;85;20194;-81
2020/12/01 02:26:37;;;;;;;;;;;;;;;0.75;84.37;101003.78;1686655;83;20508;-80
2020/12/01 02:29:07;;;;;;;;;;;;;;;0.74;84.38;101010.16;1688207;85;20214;-79
2020/12/01 02:31:35;;;;;;;;;;;;;;;0.72;84.24;101003.61;1688143;83;20186;-80
2020/12/01 02:34:06;;;;;;;;;;;;;;;0.73;84.05;101011.19;1689216;85;20158;-84
2020/12/01 02:36:34;;;;;;;;;;;;;;;0.73;84.01;101021.97;1688330;85;20258;-81
2020/12/01 02:39:02;;;;;;;;;;;;;;;0.73;84.21;101012.55;1674645;83;20192;-80
2020/12/01 02:41:33;;;;;;;;;;;;;;;0.72;83.92;101024.31;1674051;85;20195;-75
2020/12/01 02:44:03;;;;;;;;;;;;;;;0.67;84.10;101023.97;1693936;83;20187;-78
2020/12/01 02:46:35;;;;;;;;;;;;;;;0.67;84.31;101025.31;1716657;83;20204;-78
2020/12/01 02:49:07;;;;;;;;;;;;;;;0.66;84.22;101025.81;1694454;83;20248;-77
2020/12/01 02:51:34;;;;;;;;;;;;;;;0.67;84.24;101030.70;1688172;84;20268;-79
2020/12/01 02:54:02;;;;;;;;;;;;;;;0.66;84.20;101030.39;1693489;83;20179;-84
2020/12/01 02:56:29;;;;;;;;;;;;;;;0.62;83.88;101026.67;1697945;84;20168;-79
2020/12/01 02:58:57;;;;;;;;;;;;;;;0.64;83.92;101038.12;1693612;83;20186;-80
2020/12/01 03:01:25;;;;;;;;;;;;;;;0.66;83.83;101037.13;1688498;85;20263;-82
2020/12/01 03:03:52;;;;;;;;;;;;;;;0.69;83.63;101038.11;1688115;83;20488;-82
2020/12/01 03:06:20;;;;;;;;;;;;;;;0.70;83.52;101033.08;1696888;84;20533;-81
2020/12/01 03:08:48;;;;;;;;;;;;;;;0.66;83.23;101029.86;1695747;83;20443;-80
2020/12/01 03:11:16;;;;;;;;;;;;;;;0.63;83.30;101028.87;1688477;85;20202;-80
2020/12/01 03:13:44;;;;;;;;;;;;;;;0.60;83.13;101031.89;1688966;84;20190;-86
2020/12/01 03:16:12;;;;;;;;;;;;;;;0.57;83.29;101031.71;1695588;84;20527;-75
2020/12/01 03:18:42;;;;;;;;;;;;;;;0.57;83.33;101034.91;1695744;85;20571;-79
2020/12/01 03:21:10;;;;;;;;;;;;;;;0.57;83.32;101036.25;1671493;84;20204;-76
2020/12/01 03:23:38;;;;;;;;;;;;;;;0.54;82.79;101039.27;1666645;86;20252;-74
2020/12/01 03:26:06;;;;;;;;;;;;;;;0.53;83.18;101042.45;1700779;82;20226;-75
2020/12/01 03:28:34;;;;;;;;;;;;;;;0.56;83.07;101039.94;1702752;84;20253;-76
2020/12/01 03:31:01;;;;;;;;;;;;;;;0.58;82.93;101042.80;1714600;82;20200;-78
2020/12/01 03:33:29;;;;;;;;;;;;;;;0.61;82.90;101050.56;1726687;83;20243;-79
2020/12/01 03:35:56;;;;;;;;;;;;;;;0.61;82.85;101046.52;1716084;82;20189;-79
2020/12/01 03:38:23;;;;;;;;;;;;;;;0.59;82.59;101049.89;1702705;84;20209;-80
2020/12/01 03:40:51;;;;;;;;;;;;;;;0.59;82.58;101052.59;1701577;82;20227;-74
2020/12/01 03:43:19;;;;;;;;;;;;;;;0.56;82.34;101047.52;1700271;83;20239;-81
2020/12/01 03:45:46;;;;;;;;;;;;;;;0.54;82.55;101052.23;1722775;82;20191;-82
2020/12/01 03:48:14;;;;;;;;;;;;;;;0.52;82.43;101054.26;1697343;84;20221;-80
2020/12/01 03:50:42;;;;;;;;;;;;;;;0.52;82.33;101047.52;1697726;84;20237;-81
2020/12/01 03:53:09;;;;;;;;;;;;;;;0.51;82.16;101051.21;1697436;82;20524;-74
2020/12/01 03:55:36;;;;;;;;;;;;;;;0.52;82.30;101052.06;1697500;84;20193;-81
2020/12/01 03:58:04;;;;;;;;;;;;;;;0.53;82.49;101059.15;1700994;82;20536;-75
2020/12/01 04:00:32;;;;;;;;;;;;;;;0.54;82.48;101060.31;1702756;84;20253;-74
2020/12/01 04:02:59;;;;;;;;;;;;;;;0.55;82.44;101057.13;1698802;83;20253;-81
2020/12/01 04:05:28;;;;;;;;;;;;;;;0.54;82.29;101060.31;1697751;84;20241;-83
2020/12/01 04:07:56;;;;;;;;;;;;;;;0.53;81.99;101059.15;1700068;83;20204;-78
2020/12/01 04:10:25;;;;;;;;;;;;;;;0.48;81.81;101066.34;1704940;84;20544;-83
2020/12/01 04:12:53;;;;;;;;;;;;;;;0.45;82.07;101060.47;1701849;82;20198;-83
2020/12/01 04:15:22;;;;;;;;;;;;;;;0.44;82.11;101062.31;1697333;84;20611;-76
2020/12/01 04:17:49;;;;;;;;;;;;;;;0.42;82.13;101062.98;1698269;83;20183;-75
2020/12/01 04:20:17;;;;;;;;;;;;;;;0.45;82.32;101058.62;1703396;84;20201;-80
2020/12/01 04:22:45;;;;;;;;;;;;;;;0.49;82.43;101056.42;1673891;82;20202;-85
2020/12/01 04:25:13;;;;;;;;;;;;;;;0.50;81.96;101056.28;1697961;84;20446;-80
2020/12/01 04:27:40;;;;;;;;;;;;;;;0.46;82.05;101051.36;1683769;85;20184;-80
2020/12/01 04:30:08;;;;;;;;;;;;;;;0.46;82.28;101061.64;1669887;84;20218;-85
2020/12/01 04:32:36;;;;;;;;;;;;;;;0.44;82.20;101063.66;1683326;84;20233;-85
2020/12/01 04:35:04;;;;;;;;;;;;;;;0.41;82.42;101062.62;1671052;84;20224;-80
2020/12/01 04:37:32;;;;;;;;;;;;;;;0.41;82.43;101065.32;1700609;84;20221;-83
2020/12/01 04:39:59;;;;;;;;;;;;;;;0.39;82.09;101063.80;1686181;83;20662;-75
2020/12/01 04:42:27;;;;;;;;;;;;;;;0.37;82.09;101067.16;1696442;84;20199;-75
2020/12/01 04:45:06;;;;;;;;;;;;;;;0.35;81.81;101069.19;1691053;84;20203;-73
2020/12/01 04:47:37;;;;;;;;;;;;;;;0.32;81.94;101078.43;1693993;84;20233;-83
2020/12/01 04:50:09;;;;;;;;;;;;;;;0.33;82.05;101076.59;1667187;84;20204;-80
2020/12/01 04:53:03;;;;;;;;;;;;;;;0.32;81.79;101082.47;1720157;83;20505;-77
2020/12/01 04:55:44;;;;;;;;;;;;;;;0.27;81.97;101079.42;1640972;84;20226;-76
2020/12/01 04:58:33;;;;;;;;;;;;;;;0.23;82.41;101078.03;1692737;84;20221;-77
2020/12/01 05:01:07;;;;;;;;;;;;;;;0.26;82.21;101087.14;1707474;83;20194;-77
2020/12/01 05:03:41;;;;;;;;;;;;;;;0.23;82.17;101084.77;1680957;84;20539;-82
2020/12/01 05:06:42;;;;;;;;;;;;;;;0.24;82.31;101089.16;1677567;84;20595;-82
2020/12/01 05:09:13;;;;;;;;;;;;;;;0.23;81.98;101100.92;1682984;84;20652;-78
2020/12/01 05:11:51;;;;;;;;;;;;;;;0.20;81.83;101099.92;1684507;84;20213;-75
2020/12/01 05:14:34;;;;;;;;;;;;;;;0.19;81.65;101100.91;1668019;84;20196;-74
2020/12/01 05:17:06;;;;;;;;;;;;;;;0.19;81.80;101104.95;1705384;82;20565;-86
2020/12/01 05:19:47;;;;;;;;;;;;;;;0.20;81.86;101102.62;1726168;83;20187;-80
2020/12/01 05:22:16;;;;;;;;;;;;;;;0.20;81.85;101103.96;1696420;83;20178;-76
2020/12/01 05:24:47;;;;;;;;;;;;;;;0.19;82.13;101107.64;1711864;83;20195;-78
2020/12/01 05:27:31;;;;;;;;;;;;;;;0.18;82.45;101103.25;1699297;82;20185;-83
2020/12/01 05:30:07;;;;;;;;;;;;;;;0.19;82.48;101108.98;1667727;85;20241;-74
2020/12/01 05:32:38;;;;;;;;;;;;;;;0.21;82.52;101101.59;1685843;84;20399;-75
2020/12/01 05:35:21;;;;;;;;;;;;;;;0.23;82.46;101106.30;1690649;84;20464;-78
2020/12/01 05:38:04;;;;;;;;;;;;;;;0.26;82.33;101113.22;1690329;84;20184;-77
2020/12/01 05:40:33;;;;;;;;;;;;;;;0.29;82.17;101115.09;1687960;84;20229;-72
2020/12/01 05:43:00;;;;;;;;;;;;;;;0.30;82.15;101099.30;1685458;84;20184;-70
2020/12/01 05:45:30;;;;;;;;;;;;;;;0.28;82.02;101108.02;1687496;84;20507;-77
2020/12/01 05:48:11;;;;;;;;;;;;;;;0.27;82.06;101106.84;1687309;84;20171;-79
2020/12/01 05:50:47;;;;;;;;;;;;;;;0.25;82.09;101109.70;1689759;84;20276;-79
2020/12/01 05:53:18;;;;;;;;;;;;;;;0.22;82.06;101110.02;1690845;84;20210;-79
2020/12/01 05:55:51;;;;;;;;;;;;;;;0.19;82.34;101114.38;1688802;84;20199;-73
2020/12/01 05:58:19;;;;;;;;;;;;;;;0.18;82.46;101113.20;1677927;84;20241;-78
2020/12/01 06:00:46;;;;;;;;;;;;;;;0.18;82.16;101114.02;1681540;84;20247;-77
2020/12/01 06:03:29;;;;;;;;;;;;;;;0.19;82.30;101113.03;1687895;84;20209;-77
2020/12/01 06:05:58;;;;;;;;;;;;;;;0.22;82.36;101115.41;1690679;83;20641;-77
2020/12/01 06:08:50;;;;;;;;;;;;;;;0.21;82.32;101108.32;1684298;84;20189;-71
2020/12/01 06:11:31;;;;;;;;;;;;;;;0.20;82.71;101108.00;1687890;84;20300;-73
2020/12/01 06:14:00;;;;;;;;;;;;;;;0.23;82.93;101111.69;1689085;84;20209;-79
2020/12/01 06:16:34;;;;;;;;;;;;;;;0.22;82.79;101112.71;1679754;84;20219;-73
2020/12/01 06:19:25;;;;;;;;;;;;;;;0.17;83.06;101113.70;1708080;83;20628;-78
2020/12/01 06:22:11;;;;;;;;;;;;;;;0.18;83.12;101109.98;1703857;83;20195;-79
2020/12/01 06:25:06;;;;;;;;;;;;;;;0.19;83.57;101118.41;1711138;82;20243;-77
2020/12/01 06:28:08;;;;;;;;;;;;;;;0.20;83.42;101121.95;1724609;83;20549;-80
2020/12/01 06:31:00;;;;;;;;;;;;;;;0.21;83.16;101126.31;1671467;83;20260;-74
2020/12/01 06:33:57;;;;;;;;;;;;;;;0.21;83.48;101125.81;1701843;84;20820;-78
2020/12/01 06:37:00;;;;;;;;;;;;;;;0.18;83.51;101130.17;1698900;83;20602;-73
2020/12/01 06:39:32;;;;;;;;;;;;;;;0.14;83.66;101131.51;1696799;84;20324;-72
2020/12/01 06:42:15;;;;;;;;;;;;;;;0.13;83.99;101132.50;1715193;82;20203;-78
2020/12/01 06:44:44;;;;;;;;;;;;;;;0.15;84.15;101133.20;1702890;83;20172;-72
2020/12/01 06:47:12;;;;;;;;;;;;;;;0.20;83.93;101138.95;1705788;82;20219;-79
2020/12/01 06:49:41;;;;;;;;;;;;;;;0.22;83.53;101149.05;1710796;83;20477;-70
2020/12/01 06:52:13;;;;;;;;;;;;;;;0.23;83.42;101145.34;1709922;82;20214;-78
2020/12/01 06:54:48;;;;;;;;;;;;;;;0.25;83.36;101156.82;1721946;83;20513;-79
2020/12/01 06:57:28;;;;;;;;;;;;;;;0.26;83.25;101153.10;1718746;83;20202;-80
2020/12/01 06:59:56;;;;;;;;;;;;;;;0.28;83.04;101151.61;1711986;83;20663;-72
2020/12/01 07:02:31;;;;;;;;;;;;;;;0.26;83.07;101157.64;1706326;82;20422;-71
2020/12/01 07:05:13;;;;;;;;;;;;;;;0.29;83.25;101154.63;1725345;83;20499;-78
2020/12/01 07:07:47;;;;;;;;;;;;;;;0.29;82.99;101156.83;1709478;82;20210;-74
2020/12/01 07:10:26;;;;;;;;;;;;;;;0.33;82.99;101159.52;1699208;83;20254;-72
2020/12/01 07:12:57;;;;;;;;;;;;;;;0.37;82.16;101156.02;1710813;82;20316;-73
2020/12/01 07:15:31;;;;;;;;;;;;;;;0.38;82.18;101158.55;1696145;84;20214;-72
2020/12/01 07:18:02;;;;;;;;;;;;;;;0.40;81.69;101152.52;1720638;82;20657;-72
2020/12/01 07:20:36;;;;;;;;;;;;;;;0.37;81.89;101149.30;1664030;84;20574;-73
2020/12/01 07:23:28;;;;;;;;;;;;;;;0.38;81.71;101152.34;1670601;83;20346;-73
2020/12/01 07:26:00;;;;;;;;;;;;;;;0.39;81.45;101149.97;1591145;89;20474;-73
2020/12/01 07:28:40;;;;;;;;;;;;;;;0.44;81.24;101154.37;1600706;89;20201;-73
2020/12/01 07:31:28;;;;;;;;;;;;;;;0.48;81.22;101148.49;1633482;84;20196;-72
2020/12/01 07:33:59;;;;;;;;;;;;;;;0.52;81.14;101155.26;1693549;84;20221;-70
2020/12/01 07:36:40;;;;;;;;;;;;;;;0.59;80.72;101167.06;1690350;84;20278;-71
2020/12/01 07:39:18;;;;;;;;;;;;;;;0.59;79.85;101168.91;1689624;84;20568;-70
2020/12/01 07:41:59;;;;;;;;;;;;;;;0.56;79.78;101176.81;1674161;84;20305;-72
2020/12/01 07:44:30;;;;;;;;;;;;;;;0.55;79.60;101173.80;1675926;84;20638;-72
2020/12/01 07:47:08;;;;;;;;;;;;;;;0.51;79.95;101179.14;1695671;84;20190;-72
2020/12/01 07:49:44;;;;;;;;;;;;;;;0.50;80.16;101180.17;1674569;84;20218;-71
2020/12/01 07:52:15;;;;;;;;;;;;;;;0.49;80.45;101185.20;1675176;84;20579;-71
2020/12/01 07:54:45;;;;;;;;;;;;;;;0.48;80.49;101184.84;1677059;84;20579;-71
2020/12/01 07:57:16;;;;;;;;;;;;;;;0.48;80.58;101175.95;1699166;84;20534;-72
2020/12/01 07:59:45;;;;;;;;;;;;;;;0.46;80.34;101180.13;1690493;84;20192;-71
2020/12/01 08:02:13;;;;;;;;;;;;;;;0.45;80.41;101176.27;1685974;84;20225;-71
2020/12/01 08:04:41;;;;;;;;;;;;;;;0.45;80.74;101177.61;1692336;84;20186;-72
2020/12/01 08:07:15;;;;;;;;;;;;;;;0.45;80.38;101171.73;1690994;84;20181;-72
2020/12/01 08:09:45;;;;;;;;;;;;;;;0.42;80.17;101168.50;1692588;84;20559;-72
2020/12/01 08:12:14;;;;;;;;;;;;;;;0.39;80.02;101169.67;1692633;84;20186;-72
2020/12/01 08:14:51;;;;;;;;;;;;;;;0.38;80.34;101163.92;1689528;84;20234;-72
2020/12/01 08:17:24;;;;;;;;;;;;;;;0.37;79.77;101162.26;1691290;84;20512;-72
2020/12/01 08:19:53;;;;;;;;;;;;;;;0.30;79.91;101171.99;1691837;84;20260;-72
2020/12/01 08:22:27;;;;;;;;;;;;;;;0.22;80.06;101170.59;1682763;83;20183;-71
2020/12/01 08:25:01;;;;;;;;;;;;;;;0.18;80.42;101165.16;1693157;83;20234;-72
2020/12/01 08:27:39;;;;;;;;;;;;;;;0.16;80.28;101172.56;1710041;82;20277;-72
2020/12/01 08:30:08;;;;;;;;;;;;;;;0.13;80.13;101172.87;1694005;83;20319;-72
2020/12/01 08:32:40;;;;;;;;;;;;;;;0.06;80.29;101174.52;1682162;83;20246;-74
2020/12/01 08:35:28;;;;;;;;;;;;;;;0.03;80.41;101173.48;1719640;83;20179;-72
2020/12/01 08:38:20;;;;;;;;;;;;;;;0.01;80.31;101166.08;1724002;82;20187;-72
2020/12/01 08:41:09;;;;;;;;;;;;;;;0.01;80.72;101170.11;1721639;83;20248;-72
2020/12/01 08:43:43;;;;;;;;;;;;;;;0.07;80.83;101162.77;1706403;82;20183;-73
2020/12/01 08:46:24;;;;;;;;;;;;;;;0.12;80.33;101160.94;1691798;82;20179;-71
2020/12/01 08:49:07;;;;;;;;;;;;;;;0.17;80.63;101163.50;1698069;83;20197;-71
2020/12/01 08:52:00;;;;;;;;;;;;;;;0.22;80.33;101163.02;1677658;85;20189;-75
2020/12/01 08:54:36;;;;;;;;;;;;;;;0.19;80.26;101156.09;1672335;83;20211;-75
2020/12/01 08:57:10;;;;;;;;;;;;;;;0.16;80.25;101157.76;1698431;84;20191;-75
2020/12/01 08:59:47;;;;;;;;;;;;;;;0.12;80.34;101163.13;1694862;84;20316;-75
2020/12/01 09:02:21;;;;;;;;;;;;;;;0.12;80.64;101149.67;1683127;84;20214;-75
2020/12/01 09:05:00;;;;;;;;;;;;;;;0.09;80.21;101151.83;1686045;84;20585;-75
2020/12/01 09:07:32;;;;;;;;;;;;;;;0.05;80.46;101156.70;1684970;84;20224;-73
2020/12/01 09:10:08;;;;;;;;;;;;;;;0.06;80.39;101147.61;1681401;84;20341;-76
2020/12/01 09:12:44;;;;;;;;;;;;;;;0.10;80.45;101153.53;1682542;84;20231;-74
2020/12/01 09:16:19;;;;;;;;;;;;;;;0.16;80.49;101142.95;1700738;84;20194;-73
2020/12/01 09:23:16;;;;;;;;;;;;;;;0.21;79.92;101139.77;1694752;84;20185;-75
2020/12/01 09:25:45;;;;;;;;;;;;;;;0.15;79.55;101141.28;1689486;84;20546;-77
2020/12/01 09:28:18;;;;;;;;;;;;;;;0.14;80.26;101134.20;1680704;84;20185;-76
2020/12/01 09:30:46;;;;;;;;;;;;;;;0.13;80.18;101139.23;1699415;84;20499;-72
2020/12/01 09:33:17;;;;;;;;;;;;;;;0.12;80.03;101140.25;1696518;84;20315;-71
2020/12/01 09:35:45;;;;;;;;;;;;;;;0.08;80.41;101146.13;1708708;82;20197;-73
2020/12/01 09:38:12;;;;;;;;;;;;;;;0.09;80.61;101129.80;1694287;85;20217;-72
2020/12/01 09:40:40;;;;;;;;;;;;;;;0.09;80.24;101131.64;1679416;84;20241;-72
2020/12/01 09:43:17;;;;;;;;;;;;;;;0.08;80.42;101131.31;1700703;84;20273;-76
2020/12/01 09:45:41;;;;;;;;;;;;;;;0.08;80.71;101132.13;1692943;84;20252;-74
2020/12/01 09:48:16;;;;;;;;;;;;;;;0.11;80.55;101129.13;1700499;84;20229;-76
2020/12/01 09:50:39;;;;;;;;;;;;;;;0.12;80.55;101134.87;1696205;84;20623;-72
2020/12/01 09:58:25;;;;;;;;;;;;;;;0.14;80.85;101127.47;1698756;84;20189;-72
2020/12/01 10:09:07;;;;;;;;;;;;;;;0.17;80.58;101123.12;1691614;85;20568;-73
2020/12/01 10:11:52;;;;;;;;;;;;;;;0.19;80.40;101129.18;1664969;86;20496;-70
2020/12/01 10:25:37;;;;;;;;;;;;;;;0.35;80.16;101124.38;1691671;85;20185;-69
2020/12/01 10:35:49;;;;;;;;;;;;;;;0.26;79.92;101116.76;1700418;84;20194;-74
2020/12/01 10:38:24;;;;;;;;;;;;;;;0.26;80.12;101118.59;1683445;84;20317;-71
2020/12/01 10:40:52;;;;;;;;;;;;;;;0.24;80.43;101116.08;1667417;85;20289;-71
2020/12/01 10:43:19;;;;;;;;;;;;;;;0.25;80.56;101111.55;1697025;83;20214;-73
2020/12/01 10:45:46;;;;;;;;;;;;;;;0.19;80.00;101113.03;1692442;83;20514;-73
2020/12/01 10:48:16;;;;;;;;;;;;;;;0.13;80.24;101116.88;1687726;83;20820;-72
2020/12/01 10:50:44;;;;;;;;;;;;;;;0.07;80.55;101116.16;1696169;83;20216;-69
2020/12/01 10:53:15;;;;;;;;;;;;;;;0.04;80.79;101111.94;1728686;83;20179;-72
2020/12/01 10:55:43;;;;;;;;;;;;;;;0.06;80.99;101105.04;1680470;83;20643;-71
2020/12/01 10:58:10;;;;;;;;;;;;;;;0.06;80.44;101097.81;1697052;84;20255;-75
2020/12/01 11:00:38;;;;;;;;;;;;;;;0.04;80.70;101102.52;1696676;82;20254;-72
2020/12/01 11:03:05;;;;;;;;;;;;;;;0.08;80.87;101100.37;1697103;84;20194;-71
2020/12/01 11:05:33;;;;;;;;;;;;;;;0.12;81.02;101100.38;1699450;83;20267;-72
2020/12/01 11:08:02;;;;;;;;;;;;;;;0.11;80.49;101106.75;1696905;83;20249;-70
2020/12/01 11:10:30;;;;;;;;;;;;;;;0.03;80.54;101098.66;1698876;82;20183;-73
2020/12/01 11:12:58;;;;;;;;;;;;;;;-0.04;80.17;101094.39;1725847;83;20240;-71
2020/12/01 11:15:26;;;;;;;;;;;;;;;0.00;80.69;101093.09;1722912;82;20211;-69
2020/12/01 11:17:54;;;;;;;;;;;;;;;0.07;80.67;101098.17;1697010;83;20259;-72
2020/12/01 11:20:21;;;;;;;;;;;;;;;0.12;80.76;101105.76;1697185;84;20534;-74
2020/12/01 11:22:49;;;;;;;;;;;;;;;0.16;80.72;101101.23;1696585;82;20215;-73
2020/12/01 11:25:20;;;;;;;;;;;;;;;0.18;80.42;101089.80;1697094;84;20530;-73
2020/12/01 11:27:48;;;;;;;;;;;;;;;0.16;80.13;101097.20;1697593;82;20189;-73
2020/12/01 11:30:17;;;;;;;;;;;;;;;0.15;80.24;101100.91;1714969;83;20428;-75
2020/12/01 11:32:45;;;;;;;;;;;;;;;0.15;80.05;101090.64;1692305;83;20224;-73
2020/12/01 11:35:14;;;;;;;;;;;;;;;0.13;80.21;101088.61;1705837;82;20248;-72
2020/12/01 11:37:41;;;;;;;;;;;;;;;0.09;79.83;101089.42;1677357;84;20246;-69
2020/12/01 11:40:09;;;;;;;;;;;;;;;0.09;80.11;101104.72;1698774;83;20543;-77
2020/12/01 11:42:37;;;;;;;;;;;;;;;0.05;80.02;101098.84;1697629;83;20426;-73
2020/12/01 11:45:06;;;;;;;;;;;;;;;0.08;80.21;101090.95;1698413;84;20197;-74
2020/12/01 11:47:34;;;;;;;;;;;;;;;0.08;79.77;101094.45;1696768;82;20173;-75
2020/12/01 11:50:03;;;;;;;;;;;;;;;0.03;79.51;101089.23;1667910;86;20219;-74
2020/12/01 11:52:31;;;;;;;;;;;;;;;0.04;79.28;101089.56;1693726;83;20630;-76
2020/12/01 11:55:00;;;;;;;;;;;;;;;0.04;78.89;101100.33;1681881;83;20205;-75
2020/12/01 11:57:27;;;;;;;;;;;;;;;-0.01;79.21;101087.36;1691772;85;20177;-75
2020/12/01 11:59:55;;;;;;;;;;;;;;;-0.01;79.58;101092.73;1674063;84;20188;-75
2020/12/01 12:02:23;;;;;;;;;;;;;;;-0.02;79.12;101089.69;1687097;85;20278;-76
2020/12/01 12:04:53;;;;;;;;;;;;;;;-0.04;79.08;101085.83;1672652;84;20205;-73
2020/12/01 12:07:21;;;;;;;;;;;;;;;-0.05;78.73;101091.35;1691374;85;20194;-73
2020/12/01 12:09:50;;;;;;;;;;;;;;;-0.02;79.13;101094.58;1671472;84;20224;-74
2020/12/01 12:12:18;;;;;;;;;;;;;;;0.00;78.67;101089.88;1680843;85;20214;-74
2020/12/01 12:14:46;;;;;;;;;;;;;;;-0.07;78.16;101094.22;1672351;84;20196;-75
2020/12/01 12:17:13;;;;;;;;;;;;;;;-0.07;77.74;101094.71;1663953;84;20251;-70
2020/12/01 12:30:46;;;;;;;23.97;11.50;;;;;;;0.35;76.57;101095.61;1792497;78;28192;-71
2020/12/01 12:33:14;;;;;;;21.07;9.90;;;;;;;0.34;76.59;101101.99;1754289;80;21559;-71
2020/12/01 12:35:42;;;;;;;28.47;12.35;;;;;;;0.30;76.04;101107.38;1789431;78;21630;-72
2020/12/01 12:38:10;;;;;;;29.33;11.07;;;;;;;0.22;76.10;101110.52;1785272;80;21703;-71
2020/12/01 12:40:38;;;;;;;24.77;10.63;;;;;;;0.14;76.46;101115.36;1791686;80;21817;-73
2020/12/01 12:43:06;;;;;;;26.42;11.25;;;;;;;0.02;76.03;101104.53;1791155;78;21598;-72
2020/12/01 12:45:33;;;;;;;25.50;11.43;;;;;;;-0.12;75.61;101119.91;1795496;78;21169;-71
2020/12/01 12:48:01;;;;;;;26.40;11.57;;;;;;;-0.24;76.08;101118.48;1791186;79;21080;-72
2020/12/01 12:50:30;;;;;;;23.00;10.63;;;;;;;-0.26;76.27;101125.88;1777131;79;21581;-72
2020/12/01 12:52:58;;;;;;;25.50;11.17;;;;;;;-0.27;75.89;101127.72;1771485;79;21182;-73
2020/12/01 12:55:26;;;;;;;25.85;11.55;;;;;;;-0.31;75.86;101129.55;1796771;77;21117;-72
2020/12/01 12:57:54;;;;;;;25.02;11.90;;;;;;;-0.35;76.14;101124.96;1799515;77;21542;-72
2020/12/01 13:00:21;;;;;;;21.82;10.35;;;;;;;-0.38;75.98;101124.45;1779576;79;21535;-72
2020/12/01 13:02:49;;;;;;;24.27;11.18;;;;;;;-0.42;76.18;101122.56;1800476;77;21107;-72
2020/12/01 13:05:17;;;;;;;23.35;10.30;;;;;;;-0.44;75.83;101132.64;1810907;79;21552;-72
2020/12/01 13:07:46;;;;;;;23.63;10.57;;;;;;;-0.51;75.19;101134.77;1812928;79;22027;-77
2020/12/01 13:10:15;;;;;;;27.03;11.20;;;;;;;-0.59;75.46;101123.94;1784043;79;21570;-77
2020/12/01 13:12:43;;;;;;;23.27;10.63;;;;;;;-0.61;75.15;101124.11;1790111;79;21115;-82
2020/12/01 13:15:11;;;;;;;26.95;11.85;;;;;;;-0.64;75.49;101125.76;1813988;78;21162;-77
2020/12/01 13:17:40;;;;;;;25.90;10.53;;;;;;;-0.65;75.55;101136.16;1814695;79;21254;-77
2020/12/01 13:20:16;;;;;;;25.40;10.77;;;;;;;-0.67;75.71;101134.12;1821988;77;21926;-75
2020/12/01 13:22:44;;;;;;;27.57;12.00;;;;;;;-0.70;75.47;101139.31;1791863;80;21140;-75
2020/12/01 13:25:12;;;;;;;24.98;10.90;;;;;;;-0.76;75.59;101141.26;1806814;77;21227;-79
2020/12/01 13:27:40;;;;;;;30.52;11.68;;;;;;;-0.82;75.23;101132.98;1811663;79;21106;-81
2020/12/01 13:30:08;;;;;;;24.67;10.72;;;;;;;-0.85;75.17;101150.26;1832857;77;21124;-74
2020/12/01 13:32:37;;;;;;;24.70;10.83;;;;;;;-0.92;75.22;101149.19;1813328;79;21141;-74
2020/12/01 13:35:06;;;;;;;26.30;11.33;;;;;;;-0.97;75.84;101147.45;1813699;77;21145;-74
2020/12/01 13:37:34;;;;;;;27.13;11.50;;;;;;;-1.01;76.08;101150.61;1812353;77;21137;-75
2020/12/01 13:40:05;;;;;;;;;;;;;;;-1.07;75.72;101153.40;1808193;77;21225;-79
2020/12/01 13:42:33;;;;;;;23.80;11.03;;;;;;;-1.10;75.96;101154.19;1813057;77;20267;-77
2020/12/01 13:45:01;;;;;;;26.20;11.00;;;;;;;-1.15;75.87;101151.96;1780884;79;21179;-74
2020/12/01 13:47:29;;;;;;;27.75;12.23;;;;;;;-1.17;76.17;101156.64;1785268;80;21140;-74